Terminal Aerodrome Forecast
Issued by NWS Jackson, MS

Home | Current Version | Previous Version | Text Only | Print | Product List | Glossary On
Versions: 1 2 3 4 5 6 7 8 9 10 11 12 13 14 15 16 17
000
FTUS44 KMEG 251132
TAFTUP
TAF
KTUP 251132Z 2512/2612 18010KT P6SM -SHRA BKN050 BKN250
     FM251500 18012G18KT P6SM BKN025
     FM251800 18012G18KT P6SM BKN035
     FM260000 18010KT P6SM BKN050
     FM260400 18009KT P6SM VCTS SCT025CB BKN050 BKN250
      TEMPO 2607/2609 3SM TSRA BKN015CB OVC025
     FM261000 19007KT 4SM -RA BR OVC020=

USA.gov is the U.S. government's official web portal to all federal, state and local government web resources and services.